Braine-le-Comte, Belgium
Current Conditions -  °F | °C
As of 12:20 AM on Thursday 18 Dec 2014 (Local Time) from EBCI Reporting Station
Haze Haze  
Wind Chill: 50°   Ceiling: 600
Heat Index: 50°   Visibility: 2.8mi
Dew Point: 48°   Wind: 10mph
Humidity: 94%   Direction: 210°SSW
Pressure: 29.85"   Gusts: NA
Location:  50.61°N, 4.15°E
Report Text: EBCI 172320Z 21009KT 4500 BR FEW005 BKN006 10/09 Q1011 TEMPO 2500 BKN004
Loading
Personal Weather Stations






























Interactive Weather Map New forecast layout! Learn more

10-Day Weather Forecast

Advertisements
Track Severe Weather on mobile